createdAt,value
2023-04-01T00:01:55.426Z,94210.19
2023-04-01T00:04:23.827Z,94214.72
2023-04-01T00:06:52.700Z,94224.84
2023-04-01T00:09:21.052Z,94210.75
2023-04-01T00:11:50.592Z,94209.69
2023-04-01T00:14:18.680Z,94209.69
2023-04-01T00:16:47.227Z,94210.97
2023-04-01T00:19:16.109Z,94215.50
2023-04-01T00:21:44.191Z,94212.06
2023-04-01T00:24:12.530Z,94206.75
2023-04-01T00:26:40.602Z,94207.81
2023-04-01T00:29:10.013Z,94203.56
2023-04-01T00:31:38.573Z,94202.50
2023-04-01T00:34:06.748Z,94218.47
2023-04-01T00:36:34.879Z,94218.47
2023-04-01T00:39:03.088Z,94215.00
2023-04-01T00:41:31.277Z,94212.63
2023-04-01T00:44:19.139Z,94214.50
2023-04-01T00:46:47.360Z,94204.16
2023-04-01T00:49:15.859Z,94216.38
2023-04-01T00:51:43.962Z,94207.63
2023-04-01T00:54:12.063Z,94209.78
2023-04-01T00:56:41.456Z,94208.19
2023-04-01T00:59:12.130Z,94209.28
2023-04-01T01:01:41.666Z,94209.56
2023-04-01T01:04:21.296Z,94214.59
2023-04-01T01:06:53.880Z,94207.13
2023-04-01T01:09:30.776Z,94203.94
2023-04-01T01:12:04.150Z,94207.69
2023-04-01T01:14:39.016Z,94198.91
2023-04-01T01:17:12.236Z,94204.22
2023-04-01T01:19:54.208Z,94215.38
2023-04-01T01:22:38.711Z,94206.31
2023-04-01T01:25:21.021Z,94201.00
2023-04-01T01:27:51.721Z,94206.31
2023-04-01T01:30:29.164Z,94210.06
2023-04-01T01:33:09.015Z,94203.16
2023-04-01T01:35:39.432Z,94200.50
2023-04-01T01:38:16.945Z,94200.50
2023-04-01T01:40:52.836Z,94197.84
2023-04-01T01:43:22.867Z,94198.91
2023-04-01T01:45:52.015Z,94198.13
2023-04-01T01:48:20.918Z,94201.56
2023-04-01T01:50:50.415Z,94203.44
2023-04-01T01:53:19.753Z,94202.13
2023-04-01T01:55:48.466Z,94202.94
2023-04-01T01:58:19.629Z,94202.66
2023-04-01T02:00:51.004Z,94211.94
2023-04-01T02:03:19.368Z,94208.47
2023-04-01T02:05:47.596Z,94207.69
2023-04-01T02:08:20.021Z,94195.47
2023-04-01T02:10:51.395Z,94193.59
2023-04-01T02:13:26.418Z,94192.78
2023-04-01T02:15:56.551Z,94191.22
2023-04-01T02:18:25.492Z,94190.13
2023-04-01T02:20:54.244Z,94190.41
2023-04-01T02:23:23.729Z,94201.34
2023-04-01T02:25:52.100Z,94184.81
2023-04-01T02:28:21.606Z,94196.53
2023-04-01T02:30:50.250Z,94197.59
2023-04-01T02:33:18.863Z,94183.03
2023-04-01T02:35:46.979Z,94187.28
2023-04-01T02:38:16.709Z,94193.69
2023-04-01T02:40:47.899Z,94191.03
2023-04-01T02:43:16.132Z,94201.34
2023-04-01T02:45:44.218Z,94196.03
2023-04-01T02:48:13.837Z,94201.66
2023-04-01T02:50:41.863Z,94202.75
2023-04-01T02:53:10.278Z,94205.41
2023-04-01T02:55:38.406Z,94202.50
2023-04-01T02:58:07.894Z,94198.78
2023-04-01T03:00:36.418Z,94208.63
2023-04-01T03:03:05.077Z,94204.09
2023-04-01T03:05:33.346Z,94208.63
2023-04-01T03:08:01.540Z,94208.91
2023-04-01T03:10:29.602Z,94201.22
2023-04-01T03:12:57.690Z,94203.06
2023-04-01T03:15:27.615Z,94212.66
2023-04-01T03:17:56.203Z,94208.13
2023-04-01T03:20:24.728Z,94204.38
2023-04-01T03:22:52.775Z,94212.66
2023-04-01T03:25:20.967Z,94208.41
2023-04-01T03:27:49.048Z,94211.38
2023-04-01T03:30:18.253Z,94204.75
2023-04-01T03:32:53.163Z,94206.09
2023-04-01T03:35:21.306Z,94207.69
2023-04-01T03:37:49.420Z,94207.97
2023-04-01T03:40:17.896Z,94205.03
2023-04-01T03:42:46.228Z,94205.03
2023-04-01T03:45:14.718Z,94210.06
2023-04-01T03:47:42.913Z,94205.03
2023-04-01T03:50:12.948Z,94207.69
2023-04-01T03:52:41.050Z,94213.00
2023-04-01T03:55:09.887Z,94213.00
2023-04-01T03:57:40.756Z,94208.72
2023-04-01T04:00:19.980Z,94212.66
2023-04-01T04:02:52.563Z,94210.25
2023-04-01T04:05:28.726Z,94220.44
2023-04-01T04:07:57.201Z,94213.81
2023-04-01T04:10:26.078Z,94218.34
2023-04-01T04:12:54.666Z,94220.47
2023-04-01T04:15:24.567Z,94216.53
2023-04-01T04:17:52.959Z,94218.41
2023-04-01T04:20:21.088Z,94228.53
2023-04-01T04:22:51.395Z,94219.78
2023-04-01T04:25:20.141Z,94222.72
2023-04-01T04:27:48.244Z,94225.38
2023-04-01T04:30:17.800Z,94234.16
2023-04-01T04:32:46.383Z,94236.81
2023-04-01T04:35:14.686Z,94234.44
2023-04-01T04:37:42.808Z,94240.53
2023-04-01T04:40:13.618Z,94239.75
2023-04-01T04:42:43.052Z,94236.81
2023-04-01T04:45:14.592Z,94240.78
2023-04-01T04:47:50.790Z,94246.88
2023-04-01T04:50:19.489Z,94235.13
2023-04-01T04:52:48.142Z,94256.94
2023-04-01T04:55:17.904Z,94243.63
2023-04-01T04:57:50.463Z,94252.69
2023-04-01T05:00:19.352Z,94244.69
2023-04-01T05:03:02.426Z,94253.00
2023-04-01T05:05:31.073Z,94259.88
2023-04-01T05:07:59.882Z,94250.53
2023-04-01T05:10:29.406Z,94254.78
2023-04-01T05:12:57.506Z,94256.66
2023-04-01T05:15:25.764Z,94252.13
2023-04-01T05:17:54.144Z,94256.66
2023-04-01T05:20:22.622Z,94263.84
2023-04-01T05:22:50.740Z,94260.38
2023-04-01T05:25:19.287Z,94261.97
2023-04-01T05:27:48.686Z,94265.38
2023-04-01T05:30:16.925Z,94263.19
2023-04-01T05:33:05.865Z,94267.72
2023-04-01T05:35:34.869Z,94257.31
2023-04-01T05:38:03.276Z,94253.06
2023-04-01T05:40:31.382Z,94254.41
2023-04-01T05:43:01.225Z,94259.44
2023-04-01T05:45:29.348Z,94266.34
2023-04-01T05:48:03.596Z,94268.44
2023-04-01T05:50:37.545Z,94268.16
2023-04-01T05:53:06.692Z,94262.34
2023-04-01T05:55:37.080Z,94261.53
2023-04-01T05:58:07.404Z,94270.03
2023-04-01T06:00:37.286Z,94273.50
2023-04-01T06:03:05.742Z,94275.06
2023-04-01T06:05:40.424Z,94274.75
2023-04-01T06:08:12.371Z,94271.53
2023-04-01T06:10:46.522Z,94278.44
2023-04-01T06:13:21.761Z,94263.50
2023-04-01T06:15:52.792Z,94273.53
2023-04-01T06:18:48.312Z,94274.56
2023-04-01T06:21:34.037Z,94265.72
2023-04-01T06:24:18.185Z,94268.03
2023-04-01T06:26:48.420Z,94274.06
2023-04-01T06:29:36.900Z,94272.69
2023-04-01T06:32:22.525Z,94264.69
2023-04-01T06:35:19.659Z,94271.91
2023-04-01T06:38:15.570Z,94276.94
2023-04-01T06:41:09.046Z,94275.84
2023-04-01T06:43:43.903Z,94271.22
2023-04-01T06:46:36.865Z,94272.72
2023-04-01T06:49:39.029Z,94278.28
2023-04-01T06:52:27.337Z,94276.63
2023-04-01T06:55:26.622Z,94286.78
2023-04-01T06:58:16.026Z,94280.06
2023-04-01T07:00:45.515Z,94285.59
2023-04-01T07:03:20.950Z,94285.31
2023-04-01T07:05:49.033Z,94272.69
2023-04-01T07:08:20.329Z,94281.91
2023-04-01T07:10:50.049Z,94290.03
2023-04-01T07:13:38.201Z,94278.47
2023-04-01T07:16:17.290Z,94288.78
2023-04-01T07:18:50.882Z,94289.91
2023-04-01T07:21:27.688Z,94282.50
2023-04-01T07:24:03.696Z,94285.28
2023-04-01T07:26:46.935Z,94288.56
2023-04-01T07:29:20.116Z,94292.50
2023-04-01T07:32:08.761Z,94293.69
2023-04-01T07:34:43.982Z,94289.94
2023-04-01T07:37:14.949Z,94303.69
2023-04-01T07:39:47.343Z,94301.50
2023-04-01T07:42:23.386Z,94303.88
2023-04-01T07:44:55.568Z,94306.66
2023-04-01T07:47:34.715Z,94304.47
2023-04-01T07:50:11.288Z,94301.41
2023-04-01T07:52:42.982Z,94297.84
2023-04-01T07:55:22.614Z,94295.47
2023-04-01T07:57:52.264Z,94304.28
2023-04-01T08:00:22.418Z,94304.66
2023-04-01T08:03:19.065Z,94297.06
2023-04-01T08:05:54.818Z,94311.69
2023-04-01T08:08:29.329Z,94300.50
2023-04-01T08:11:23.134Z,94307.66
2023-04-01T08:14:11.727Z,94307.38
2023-04-01T08:17:01.709Z,94315.69
2023-04-01T08:19:47.369Z,94307.28
2023-04-01T08:22:20.066Z,94311.41
2023-04-01T08:24:48.843Z,94305.41
2023-04-01T08:27:25.455Z,94311.19
2023-04-01T08:29:58.040Z,94319.91
2023-04-01T08:32:27.858Z,94317.41
2023-04-01T08:35:09.475Z,94317.06
2023-04-01T08:37:42.318Z,94319.06
2023-04-01T08:40:27.749Z,94321.44
2023-04-01T08:43:03.409Z,94320.81
2023-04-01T08:45:57.888Z,94326.06
2023-04-01T08:48:35.715Z,94332.19
2023-04-01T08:51:15.371Z,94336.38
2023-04-01T08:54:10.131Z,94331.25
2023-04-01T08:56:39.769Z,94329.47
2023-04-01T08:59:20.643Z,94328.06
2023-04-01T09:02:08.619Z,94323.72
2023-04-01T09:05:28.129Z,94333.50
2023-04-01T09:08:01.166Z,94328.09
2023-04-01T09:10:48.158Z,94324.75
2023-04-01T09:13:52.449Z,94332.47
2023-04-01T09:16:25.798Z,94331.63
2023-04-01T09:19:18.769Z,94333.91
2023-04-01T09:22:01.744Z,94336.09
2023-04-01T09:24:50.550Z,94341.31
2023-04-01T09:27:29.200Z,94338.47
2023-04-01T09:30:31.714Z,94337.25
2023-04-01T09:33:53.575Z,94338.03
2023-04-01T09:36:41.087Z,94340.63
2023-04-01T09:39:21.319Z,94348.94
2023-04-01T09:41:54.179Z,94341.91
2023-04-01T09:44:36.423Z,94331.19
2023-04-01T09:47:18.649Z,94345.25
2023-04-01T09:49:58.095Z,94342.03
2023-04-01T09:52:29.941Z,94339.94
2023-04-01T09:55:40.199Z,94346.75
2023-04-01T09:58:43.699Z,94346.34
2023-04-01T10:02:04.140Z,94353.47
2023-04-01T10:05:17.722Z,94340.41
2023-04-01T10:08:07.736Z,94343.28
2023-04-01T10:11:06.304Z,94341.78
2023-04-01T10:14:21.619Z,94342.91
2023-04-01T10:17:25.529Z,94342.19
2023-04-01T10:20:14.613Z,94335.00
2023-04-01T10:23:01.268Z,94338.97
2023-04-01T10:25:41.200Z,94351.22
2023-04-01T10:28:32.610Z,94337.25
2023-04-01T10:31:37.172Z,94344.13
2023-04-01T10:34:15.630Z,94346.25
2023-04-01T10:36:54.454Z,94344.44
2023-04-01T10:39:58.293Z,94349.69
2023-04-01T10:43:15.496Z,94349.31
2023-04-01T10:46:15.609Z,94343.31
2023-04-01T10:49:32.478Z,94341.25
2023-04-01T10:52:47.355Z,94338.69
2023-04-01T10:56:17.750Z,94330.25
2023-04-01T10:59:43.071Z,94345.38
2023-04-01T11:02:58.819Z,94347.47
2023-04-01T11:06:14.451Z,94343.97
2023-04-01T11:09:15.741Z,94339.75
2023-04-01T11:12:21.640Z,94341.00
2023-04-01T11:15:22.474Z,94334.66
2023-04-01T11:18:24.282Z,94332.19
2023-04-01T11:21:31.305Z,94340.78
2023-04-01T11:24:18.245Z,94333.22
2023-04-01T11:27:03.316Z,94340.69
2023-04-01T11:30:00.074Z,94345.09
2023-04-01T11:32:44.763Z,94330.88
2023-04-01T11:35:35.824Z,94321.16
2023-04-01T11:38:16.363Z,94352.56
2023-04-01T11:41:15.771Z,94343.88
2023-04-01T11:44:18.985Z,94351.09
2023-04-01T11:47:25.091Z,94349.41
2023-04-01T11:50:06.327Z,94347.47
2023-04-01T11:53:03.740Z,94349.97
2023-04-01T11:55:37.911Z,94354.06
2023-04-01T11:58:20.713Z,94357.50
2023-04-01T12:01:00.289Z,94356.38
2023-04-01T12:03:38.794Z,94366.88
2023-04-01T12:06:10.940Z,94360.59
2023-04-01T12:08:43.404Z,94365.81
2023-04-01T12:11:16.811Z,94360.66
2023-04-01T12:13:47.540Z,94364.59
2023-04-01T12:16:22.917Z,94378.22
2023-04-01T12:18:52.352Z,94369.84
2023-04-01T12:21:26.999Z,94365.38
2023-04-01T12:24:11.210Z,94366.47
2023-04-01T12:27:12.850Z,94377.41
2023-04-01T12:29:56.486Z,94377.94
2023-04-01T12:32:28.276Z,94375.84
2023-04-01T12:35:19.397Z,94391.50
2023-04-01T12:37:53.039Z,94387.06
2023-04-01T12:40:34.183Z,94386.78
2023-04-01T12:43:23.801Z,94378.28
2023-04-01T12:45:53.748Z,94387.06
2023-04-01T12:48:58.766Z,94384.78
2023-04-01T12:51:40.583Z,94385.47
2023-04-01T12:54:35.561Z,94383.03
2023-04-01T12:57:12.101Z,94396.47
2023-04-01T13:00:01.186Z,94391.91
2023-04-01T13:02:36.614Z,94386.47
2023-04-01T13:05:27.302Z,94384.75
2023-04-01T13:07:59.200Z,94392.84
2023-04-01T13:10:39.963Z,94385.00
2023-04-01T13:13:31.535Z,94384.41
2023-04-01T13:16:00.558Z,94380.56
2023-04-01T13:18:33.484Z,94388.41
2023-04-01T13:21:08.061Z,94376.22
2023-04-01T13:23:42.047Z,94388.13
2023-04-01T13:26:16.333Z,94379.03
2023-04-01T13:28:46.776Z,94387.25
2023-04-01T13:31:25.040Z,94388.66
2023-04-01T13:33:58.557Z,94390.44
2023-04-01T13:36:29.727Z,94379.91
2023-04-01T13:39:21.534Z,94393.69
2023-04-01T13:42:08.745Z,94389.50
2023-04-01T13:44:37.457Z,94397.59
2023-04-01T13:47:23.148Z,94399.91
2023-04-01T13:50:00.529Z,94399.91
2023-04-01T13:52:44.872Z,94397.78
2023-04-01T13:55:55.954Z,94403.59
2023-04-01T13:58:45.932Z,94397.59
2023-04-01T14:01:16.683Z,94403.97
2023-04-01T14:03:59.413Z,94393.91
2023-04-01T14:06:31.695Z,94406.81
2023-04-01T14:09:19.085Z,94410.75
2023-04-01T14:11:52.667Z,94403.34
2023-04-01T14:14:26.042Z,94406.34
2023-04-01T14:17:02.167Z,94404.59
2023-04-01T14:19:38.789Z,94408.03
2023-04-01T14:22:09.097Z,94408.53
2023-04-01T14:25:06.708Z,94411.63
2023-04-01T14:27:40.641Z,94407.28
2023-04-01T14:30:22.980Z,94400.66
2023-04-01T14:32:54.489Z,94409.53
2023-04-01T14:35:32.265Z,94411.97
2023-04-01T14:38:26.342Z,94414.88
2023-04-01T14:40:57.812Z,94417.94
2023-04-01T14:44:09.534Z,94418.44
2023-04-01T14:46:52.315Z,94415.78
2023-04-01T14:49:22.614Z,94420.31
2023-04-01T14:51:51.054Z,94419.63
2023-04-01T14:54:23.852Z,94409.72
2023-04-01T14:56:52.781Z,94417.38
2023-04-01T14:59:29.197Z,94416.44
2023-04-01T15:02:02.340Z,94416.03
2023-04-01T15:04:58.311Z,94415.94
2023-04-01T15:07:45.103Z,94417.53
2023-04-01T15:10:20.829Z,94417.63
2023-04-01T15:12:53.193Z,94422.19
2023-04-01T15:15:31.098Z,94424.47
2023-04-01T15:18:07.707Z,94422.88
2023-04-01T15:20:58.718Z,94420.50
2023-04-01T15:23:36.022Z,94421.59
2023-04-01T15:26:24.110Z,94429.50
2023-04-01T15:29:24.878Z,94420.41
2023-04-01T15:31:53.975Z,94430.97
2023-04-01T15:34:31.117Z,94428.00
2023-04-01T15:37:00.548Z,94434.53
2023-04-01T15:39:33.408Z,94434.06
2023-04-01T15:42:15.044Z,94428.72
2023-04-01T15:45:00.949Z,94434.63
2023-04-01T15:47:34.514Z,94434.03
2023-04-01T15:50:26.876Z,94437.78
2023-04-01T15:53:01.656Z,94447.69
2023-04-01T15:55:29.960Z,94442.47
2023-04-01T15:58:07.890Z,94443.53
2023-04-01T16:00:38.515Z,94451.34
2023-04-01T16:03:16.974Z,94450.69
2023-04-01T16:06:04.219Z,94455.81
2023-04-01T16:09:04.583Z,94461.38
2023-04-01T16:11:40.305Z,94450.31
2023-04-01T16:14:13.472Z,94448.63
2023-04-01T16:16:49.618Z,94454.34
2023-04-01T16:19:31.827Z,94456.91
2023-04-01T16:22:02.739Z,94456.13
2023-04-01T16:24:35.393Z,94461.75
2023-04-01T16:27:05.735Z,94462.38
2023-04-01T16:29:37.600Z,94461.66
2023-04-01T16:32:27.415Z,94464.13
2023-04-01T16:35:06.341Z,94459.78
2023-04-01T16:37:38.532Z,94471.03
2023-04-01T16:40:15.208Z,94473.03
2023-04-01T16:42:46.415Z,94470.72
2023-04-01T16:45:27.266Z,94478.22
2023-04-01T16:47:56.750Z,94478.31
2023-04-01T16:50:26.121Z,94475.75
2023-04-01T16:53:02.067Z,94477.13
2023-04-01T16:55:38.344Z,94486.25
2023-04-01T16:58:08.059Z,94492.00
2023-04-01T17:00:40.321Z,94494.16
2023-04-01T17:03:18.694Z,94497.69
2023-04-01T17:05:58.682Z,94496.41
2023-04-01T17:08:34.270Z,94502.31
2023-04-01T17:11:04.580Z,94505.56
2023-04-01T17:13:43.056Z,94505.06
2023-04-01T17:16:42.899Z,94511.75
2023-04-01T17:19:16.315Z,94514.53
2023-04-01T17:21:56.851Z,94519.63
2023-04-01T17:24:32.911Z,94518.91
2023-04-01T17:27:04.667Z,94523.47
2023-04-01T17:29:40.463Z,94518.19
2023-04-01T17:32:10.679Z,94531.31
2023-04-01T17:34:44.428Z,94533.75
2023-04-01T17:37:33.037Z,94528.19
2023-04-01T17:40:25.141Z,94533.03
2023-04-01T17:42:55.936Z,94536.28
2023-04-01T17:45:26.577Z,94535.50
2023-04-01T17:48:04.458Z,94536.88
2023-04-01T17:50:39.000Z,94536.38
2023-04-01T17:53:16.332Z,94549.19
2023-04-01T17:56:01.101Z,94546.78
2023-04-01T17:58:31.546Z,94551.59
2023-04-01T18:01:11.039Z,94558.84
2023-04-01T18:04:00.530Z,94561.50
2023-04-01T18:06:33.848Z,94563.94
2023-04-01T18:09:02.505Z,94566.59
2023-04-01T18:11:41.970Z,94564.50
2023-04-01T18:14:30.340Z,94573.56
2023-04-01T18:17:05.503Z,94575.75
2023-04-01T18:19:38.885Z,94576.50
2023-04-01T18:22:13.003Z,94584.00
2023-04-01T18:24:45.156Z,94579.75
2023-04-01T18:27:18.550Z,94593.88
2023-04-01T18:29:50.635Z,94594.16
2023-04-01T18:32:36.179Z,94599.47
2023-04-01T18:35:15.323Z,94600.56
2023-04-01T18:37:45.843Z,94600.56
2023-04-01T18:40:18.217Z,94605.09
2023-04-01T18:42:55.525Z,94600.81
2023-04-01T18:45:25.248Z,94611.75
2023-04-01T18:48:07.163Z,94616.28
2023-04-01T18:50:38.597Z,94620.03
2023-04-01T18:53:15.038Z,94611.28
2023-04-01T18:55:44.185Z,94615.81
2023-04-01T18:58:37.166Z,94623.00
2023-04-01T19:01:10.246Z,94624.34
2023-04-01T19:03:42.129Z,94629.94
2023-04-01T19:06:19.146Z,94631.81
2023-04-01T19:08:47.421Z,94639.81
2023-04-01T19:11:19.932Z,94638.22
2023-04-01T19:13:52.919Z,94632.09
2023-04-01T19:16:27.899Z,94636.63
2023-04-01T19:19:09.089Z,94640.09
2023-04-01T19:21:38.345Z,94639.28
2023-04-01T19:24:14.716Z,94645.41
2023-04-01T19:26:44.580Z,94650.22
2023-04-01T19:29:21.767Z,94646.00
2023-04-01T19:31:54.842Z,94652.41
2023-04-01T19:34:28.934Z,94652.66
2023-04-01T19:36:58.333Z,94657.47
2023-04-01T19:39:45.141Z,94659.63
2023-04-01T19:42:18.050Z,94656.97
2023-04-01T19:44:53.532Z,94666.31
2023-04-01T19:47:24.905Z,94665.22
2023-04-01T19:50:00.908Z,94666.31
2023-04-01T19:52:32.859Z,94668.19
2023-04-01T19:55:03.446Z,94661.28
2023-04-01T19:57:36.991Z,94671.13
2023-04-01T20:00:08.770Z,94672.47
2023-04-01T20:02:46.823Z,94670.09
2023-04-01T20:05:33.608Z,94677.81
2023-04-01T20:08:03.084Z,94674.63
2023-04-01T20:10:34.201Z,94680.75
2023-04-01T20:13:04.744Z,94684.47
2023-04-01T20:15:36.339Z,94690.59
2023-04-01T20:18:05.845Z,94694.31
2023-04-01T20:20:34.025Z,94692.47
2023-04-01T20:23:19.662Z,94695.63
2023-04-01T20:25:49.202Z,94698.31
2023-04-01T20:28:24.501Z,94697.50
2023-04-01T20:31:18.495Z,94705.50
2023-04-01T20:34:05.239Z,94710.03
2023-04-01T20:36:35.975Z,94704.69
2023-04-01T20:39:35.542Z,94704.69
2023-04-01T20:42:15.276Z,94709.75
2023-04-01T20:44:43.813Z,94716.16
2023-04-01T20:47:19.257Z,94720.41
2023-04-01T20:49:51.382Z,94724.66
2023-04-01T20:52:28.301Z,94722.53
2023-04-01T20:55:24.418Z,94724.38
2023-04-01T20:57:56.857Z,94718.53
2023-04-01T21:00:36.024Z,94727.31
2023-04-01T21:03:13.501Z,94735.03
2023-04-01T21:05:52.144Z,94728.63
2023-04-01T21:08:23.136Z,94736.63
2023-04-01T21:10:54.250Z,94738.50
2023-04-01T21:13:30.199Z,94744.09
2023-04-01T21:16:08.377Z,94747.31
2023-04-01T21:18:56.372Z,94752.91
2023-04-01T21:21:32.698Z,94752.41
2023-04-01T21:24:11.117Z,94753.47
2023-04-01T21:26:46.458Z,94756.13
2023-04-01T21:29:28.490Z,94759.06
2023-04-01T21:32:02.948Z,94751.88
2023-04-01T21:34:46.092Z,94754.03
2023-04-01T21:37:43.135Z,94761.47
2023-04-01T21:40:53.124Z,94768.16
2023-04-01T21:43:30.053Z,94765.25
2023-04-01T21:46:27.478Z,94770.84
2023-04-01T21:49:05.452Z,94766.34
2023-04-01T21:51:57.010Z,94775.13
2023-04-01T21:54:45.603Z,94781.81
2023-04-01T21:58:01.294Z,94782.63
2023-04-01T22:00:31.421Z,94782.88
2023-04-01T22:03:34.636Z,94781.03
2023-04-01T22:06:13.048Z,94784.75
2023-04-01T22:08:50.186Z,94783.16
2023-04-01T22:11:23.802Z,94785.03
2023-04-01T22:13:53.098Z,94784.75
2023-04-01T22:16:26.606Z,94789.59
2023-04-01T22:19:00.185Z,94788.25
2023-04-01T22:21:31.789Z,94791.19
2023-04-01T22:24:03.800Z,94799.44
2023-04-01T22:26:35.085Z,94800.00
2023-04-01T22:29:06.685Z,94798.69
2023-04-01T22:31:37.509Z,94803.50
2023-04-01T22:34:08.542Z,94796.84
2023-04-01T22:36:41.398Z,94801.63
2023-04-01T22:39:20.324Z,94811.22
2023-04-01T22:41:56.293Z,94809.91
2023-04-01T22:44:31.660Z,94807.75
2023-04-01T22:47:03.657Z,94821.59
2023-04-01T22:49:34.695Z,94814.41
2023-04-01T22:52:05.352Z,94820.50
2023-04-01T22:54:36.718Z,94822.09
2023-04-01T22:57:06.268Z,94831.16
2023-04-01T22:59:38.041Z,94826.63
2023-04-01T23:02:08.608Z,94828.75
2023-04-01T23:04:40.974Z,94828.75
2023-04-01T23:07:32.749Z,94832.75
2023-04-01T23:10:02.236Z,94829.03
2023-04-01T23:12:31.031Z,94845.00
2023-04-01T23:14:59.330Z,94839.41
2023-04-01T23:17:44.210Z,94838.34
2023-04-01T23:20:20.910Z,94842.56
2023-04-01T23:22:56.170Z,94839.38
2023-04-01T23:25:29.829Z,94850.53
2023-04-01T23:28:00.983Z,94845.75
2023-04-01T23:30:56.698Z,94855.59
2023-04-01T23:33:26.526Z,94853.72
2023-04-01T23:35:55.893Z,94857.19
2023-04-01T23:38:25.603Z,94863.31
2023-04-01T23:40:56.507Z,94869.44
2023-04-01T23:43:26.871Z,94870.72
2023-04-01T23:45:55.428Z,94867.00
2023-04-01T23:48:26.672Z,94871.53
2023-04-01T23:50:54.777Z,94872.31
2023-04-01T23:53:25.724Z,94880.03
2023-04-01T23:55:55.144Z,94880.03
2023-04-01T23:58:24.615Z,94880.84
